X  Lukk Metar værinformasjon om luftfart     LGEL Elefsis Airport
Temperatur
66°F Temperatur
52°F Duggpunkt
60% Luftfuktighet



Vind
9 MPT
14 KM/T
4 M/S
8 KNP



160°
SSØ
Nåværende forhold

Stort sett spredte skyer Stort sett spredte skyer
Trykk 1016.93 (hPa) - 30.03 (inHg)
Sikt 6 (mil) - 9.7 (km)
Flyplass
Flyplass-kode LGEL

Plassering: Elefsis Airport
Avstand: 77 (mi)

Metar:
LGEL 291220Z 16008KT 9999 SCT025 19/11 Q1017

Tid: 29-02-2024 14:20 EET